Slaughter Beach, Delaware
Current Conditions -  °F | °C
As of 4:03 AM on Sunday 26 Oct 2014 (Local Time) from KDOV Reporting Station
Broken Clouds Broken Clouds  
Wind Chill: 59°   Ceiling: 6000
Heat Index: 59°   Visibility: 8mi
Dew Point: 48°   Wind: 8mph
Humidity: 67%   Direction: 260°W
Pressure: 29.62"   Gusts: NA
Location:  38.9593°N, 75.405°W
Report Text: KDOV 260803Z AUTO 26007KT 8SM R19/5500FT BKN060 15/09 A2962 RMK AO2
Loading
Personal Weather Stations






























Interactive Weather Map
Tropical Storm Tracking
New forecast layout! Learn more

10-Day Weather Forecast

Advertisements
Track Severe Weather on mobile